<?xml version="1.0" encoding="UTF-8" standalone="no" ?>
<gpx xmlns="http://www.topografix.com/GPX/1/1" xmlns:xsi="http://www.w3.org/2001/XMLSchema-instance" xsi:schemaLocation="http://www.topografix.com/GPX/1/1 http://www.topografix.com/GPX/1/1/gpx.xsd" version="1.1" creator="VisuGPX - https://www.visugpx.com">
  <metadata>
    <name>160821 - Brécy</name>
    <desc><![CDATA[Circuit en handbike du 21 août 2016]]></desc>
  </metadata>
  <trk>
    <name><![CDATA[160821 - Brécy]]></name>
    <trkseg>
      <trkpt lat="49.32667" lon="-0.38072">
        <ele>6.39</ele>
        <time>2016-08-21T12:37:45Z</time>
      </trkpt>
      <trkpt lat="49.32686" lon="-0.38065">
        <ele>7.35</ele>
        <time>2016-08-21T12:38:08Z</time>
      </trkpt>
      <trkpt lat="49.32686" lon="-0.38023">
        <ele>7.35</ele>
        <time>2016-08-21T12:38:19Z</time>
      </trkpt>
      <trkpt lat="49.32662" lon="-0.37906">
        <ele>6.39</ele>
        <time>2016-08-21T12:38:41Z</time>
      </trkpt>
      <trkpt lat="49.32639" lon="-0.37764">
        <ele>6.87</ele>
        <time>2016-08-21T12:39:02Z</time>
      </trkpt>
      <trkpt lat="49.32618" lon="-0.37644">
        <ele>6.39</ele>
        <time>2016-08-21T12:39:16Z</time>
      </trkpt>
      <trkpt lat="49.32562" lon="-0.37624">
        <ele>6.39</ele>
        <time>2016-08-21T12:39:28Z</time>
      </trkpt>
      <trkpt lat="49.32545" lon="-0.3764">
        <ele>6.87</ele>
        <time>2016-08-21T12:39:32Z</time>
      </trkpt>
      <trkpt lat="49.32532" lon="-0.37649">
        <ele>7.35</ele>
        <time>2016-08-21T12:40:01Z</time>
      </trkpt>
      <trkpt lat="49.32506" lon="-0.37582">
        <ele>6.39</ele>
        <time>2016-08-21T12:40:18Z</time>
      </trkpt>
      <trkpt lat="49.32364" lon="-0.37637">
        <ele>7.83</ele>
        <time>2016-08-21T12:40:55Z</time>
      </trkpt>
      <trkpt lat="49.32281" lon="-0.37673">
        <ele>5.91</ele>
        <time>2016-08-21T12:41:16Z</time>
      </trkpt>
      <trkpt lat="49.32264" lon="-0.3763">
        <ele>5.42</ele>
        <time>2016-08-21T12:41:31Z</time>
      </trkpt>
      <trkpt lat="49.32206" lon="-0.37652">
        <ele>7.35</ele>
        <time>2016-08-21T12:42:33Z</time>
      </trkpt>
      <trkpt lat="49.3219" lon="-0.37648">
        <ele>6.87</ele>
        <time>2016-08-21T12:43:03Z</time>
      </trkpt>
      <trkpt lat="49.32181" lon="-0.37638">
        <ele>5.42</ele>
        <time>2016-08-21T12:43:07Z</time>
      </trkpt>
      <trkpt lat="49.32164" lon="-0.37611">
        <ele>4.94</ele>
        <time>2016-08-21T12:43:12Z</time>
      </trkpt>
      <trkpt lat="49.32144" lon="-0.37591">
        <ele>4.94</ele>
        <time>2016-08-21T12:43:17Z</time>
      </trkpt>
      <trkpt lat="49.32122" lon="-0.37605">
        <ele>4.46</ele>
        <time>2016-08-21T12:43:25Z</time>
      </trkpt>
      <trkpt lat="49.32101" lon="-0.37596">
        <ele>4.46</ele>
        <time>2016-08-21T12:43:31Z</time>
      </trkpt>
      <trkpt lat="49.32033" lon="-0.3764">
        <ele>3.98</ele>
        <time>2016-08-21T12:43:51Z</time>
      </trkpt>
      <trkpt lat="49.31975" lon="-0.37771">
        <ele>5.42</ele>
        <time>2016-08-21T12:44:17Z</time>
      </trkpt>
      <trkpt lat="49.31942" lon="-0.37916">
        <ele>6.39</ele>
        <time>2016-08-21T12:44:41Z</time>
      </trkpt>
      <trkpt lat="49.31903" lon="-0.38063">
        <ele>8.31</ele>
        <time>2016-08-21T12:45:03Z</time>
      </trkpt>
      <trkpt lat="49.31897" lon="-0.38078">
        <ele>8.31</ele>
        <time>2016-08-21T12:45:05Z</time>
      </trkpt>
      <trkpt lat="49.3183" lon="-0.38226">
        <ele>8.79</ele>
        <time>2016-08-21T12:45:29Z</time>
      </trkpt>
      <trkpt lat="49.31753" lon="-0.38403">
        <ele>9.75</ele>
        <time>2016-08-21T12:45:57Z</time>
      </trkpt>
      <trkpt lat="49.31719" lon="-0.38539">
        <ele>9.27</ele>
        <time>2016-08-21T12:46:17Z</time>
      </trkpt>
      <trkpt lat="49.31646" lon="-0.38716">
        <ele>10.71</ele>
        <time>2016-08-21T12:46:45Z</time>
      </trkpt>
      <trkpt lat="49.31579" lon="-0.38861">
        <ele>11.67</ele>
        <time>2016-08-21T12:47:10Z</time>
      </trkpt>
      <trkpt lat="49.31534" lon="-0.38965">
        <ele>11.19</ele>
        <time>2016-08-21T12:47:27Z</time>
      </trkpt>
      <trkpt lat="49.31523" lon="-0.39016">
        <ele>12.15</ele>
        <time>2016-08-21T12:47:35Z</time>
      </trkpt>
      <trkpt lat="49.31506" lon="-0.39165">
        <ele>13.12</ele>
        <time>2016-08-21T12:47:57Z</time>
      </trkpt>
      <trkpt lat="49.31491" lon="-0.39219">
        <ele>15.52</ele>
        <time>2016-08-21T12:48:05Z</time>
      </trkpt>
      <trkpt lat="49.31467" lon="-0.39295">
        <ele>18.4</ele>
        <time>2016-08-21T12:48:16Z</time>
      </trkpt>
      <trkpt lat="49.31433" lon="-0.39391">
        <ele>21.29</ele>
        <time>2016-08-21T12:48:31Z</time>
      </trkpt>
      <trkpt lat="49.31403" lon="-0.39485">
        <ele>24.65</ele>
        <time>2016-08-21T12:48:46Z</time>
      </trkpt>
      <trkpt lat="49.31368" lon="-0.39633">
        <ele>27.53</ele>
        <time>2016-08-21T12:49:09Z</time>
      </trkpt>
      <trkpt lat="49.31314" lon="-0.39776">
        <ele>27.53</ele>
        <time>2016-08-21T12:49:34Z</time>
      </trkpt>
      <trkpt lat="49.31235" lon="-0.39972">
        <ele>27.05</ele>
        <time>2016-08-21T12:50:05Z</time>
      </trkpt>
      <trkpt lat="49.31164" lon="-0.40109">
        <ele>28.98</ele>
        <time>2016-08-21T12:50:29Z</time>
      </trkpt>
      <trkpt lat="49.31079" lon="-0.40271">
        <ele>29.46</ele>
        <time>2016-08-21T12:50:57Z</time>
      </trkpt>
      <trkpt lat="49.31008" lon="-0.40433">
        <ele>31.38</ele>
        <time>2016-08-21T12:51:24Z</time>
      </trkpt>
      <trkpt lat="49.30917" lon="-0.40622">
        <ele>33.3</ele>
        <time>2016-08-21T12:52:00Z</time>
      </trkpt>
      <trkpt lat="49.30857" lon="-0.40645">
        <ele>33.78</ele>
        <time>2016-08-21T12:52:32Z</time>
      </trkpt>
      <trkpt lat="49.30749" lon="-0.40697">
        <ele>35.71</ele>
        <time>2016-08-21T12:52:58Z</time>
      </trkpt>
      <trkpt lat="49.30717" lon="-0.40717">
        <ele>37.15</ele>
        <time>2016-08-21T12:53:12Z</time>
      </trkpt>
      <trkpt lat="49.30691" lon="-0.40729">
        <ele>36.67</ele>
        <time>2016-08-21T12:53:32Z</time>
      </trkpt>
      <trkpt lat="49.30626" lon="-0.40784">
        <ele>36.19</ele>
        <time>2016-08-21T12:53:52Z</time>
      </trkpt>
      <trkpt lat="49.30618" lon="-0.40808">
        <ele>36.19</ele>
        <time>2016-08-21T12:53:56Z</time>
      </trkpt>
      <trkpt lat="49.30615" lon="-0.40829">
        <ele>36.67</ele>
        <time>2016-08-21T12:53:59Z</time>
      </trkpt>
      <trkpt lat="49.30586" lon="-0.40881">
        <ele>37.15</ele>
        <time>2016-08-21T12:54:10Z</time>
      </trkpt>
      <trkpt lat="49.30493" lon="-0.40895">
        <ele>37.63</ele>
        <time>2016-08-21T12:54:30Z</time>
      </trkpt>
      <trkpt lat="49.30477" lon="-0.40899">
        <ele>38.11</ele>
        <time>2016-08-21T12:54:35Z</time>
      </trkpt>
      <trkpt lat="49.30472" lon="-0.40916">
        <ele>37.63</ele>
        <time>2016-08-21T12:54:39Z</time>
      </trkpt>
      <trkpt lat="49.30468" lon="-0.41009">
        <ele>37.63</ele>
        <time>2016-08-21T12:55:02Z</time>
      </trkpt>
      <trkpt lat="49.30425" lon="-0.41022">
        <ele>38.59</ele>
        <time>2016-08-21T12:55:24Z</time>
      </trkpt>
      <trkpt lat="49.30412" lon="-0.41083">
        <ele>40.03</ele>
        <time>2016-08-21T12:55:44Z</time>
      </trkpt>
      <trkpt lat="49.30354" lon="-0.41092">
        <ele>40.51</ele>
        <time>2016-08-21T12:56:00Z</time>
      </trkpt>
      <trkpt lat="49.30271" lon="-0.41075">
        <ele>39.55</ele>
        <time>2016-08-21T12:56:14Z</time>
      </trkpt>
      <trkpt lat="49.30141" lon="-0.41133">
        <ele>40.99</ele>
        <time>2016-08-21T12:56:38Z</time>
      </trkpt>
      <trkpt lat="49.2986" lon="-0.4116">
        <ele>46.76</ele>
        <time>2016-08-21T12:57:26Z</time>
      </trkpt>
      <trkpt lat="49.29745" lon="-0.4117">
        <ele>48.2</ele>
        <time>2016-08-21T12:57:50Z</time>
      </trkpt>
      <trkpt lat="49.29656" lon="-0.41178">
        <ele>51.57</ele>
        <time>2016-08-21T12:58:07Z</time>
      </trkpt>
      <trkpt lat="49.2946" lon="-0.41187">
        <ele>53.97</ele>
        <time>2016-08-21T12:58:42Z</time>
      </trkpt>
      <trkpt lat="49.29255" lon="-0.41173">
        <ele>55.41</ele>
        <time>2016-08-21T12:59:16Z</time>
      </trkpt>
      <trkpt lat="49.29163" lon="-0.4116">
        <ele>56.86</ele>
        <time>2016-08-21T12:59:33Z</time>
      </trkpt>
      <trkpt lat="49.29111" lon="-0.41177">
        <ele>55.41</ele>
        <time>2016-08-21T12:59:42Z</time>
      </trkpt>
      <trkpt lat="49.29078" lon="-0.41209">
        <ele>56.37</ele>
        <time>2016-08-21T12:59:49Z</time>
      </trkpt>
      <trkpt lat="49.29053" lon="-0.41286">
        <ele>56.86</ele>
        <time>2016-08-21T12:59:59Z</time>
      </trkpt>
      <trkpt lat="49.2896" lon="-0.41357">
        <ele>55.89</ele>
        <time>2016-08-21T13:00:19Z</time>
      </trkpt>
      <trkpt lat="49.28865" lon="-0.41414">
        <ele>55.41</ele>
        <time>2016-08-21T13:00:37Z</time>
      </trkpt>
      <trkpt lat="49.28812" lon="-0.41463">
        <ele>55.41</ele>
        <time>2016-08-21T13:01:34Z</time>
      </trkpt>
      <trkpt lat="49.28762" lon="-0.41475">
        <ele>53.49</ele>
        <time>2016-08-21T13:01:47Z</time>
      </trkpt>
      <trkpt lat="49.28735" lon="-0.41498">
        <ele>53.01</ele>
        <time>2016-08-21T13:01:58Z</time>
      </trkpt>
      <trkpt lat="49.28689" lon="-0.41538">
        <ele>53.97</ele>
        <time>2016-08-21T13:02:16Z</time>
      </trkpt>
      <trkpt lat="49.28632" lon="-0.41592">
        <ele>52.05</ele>
        <time>2016-08-21T13:02:32Z</time>
      </trkpt>
      <trkpt lat="49.28624" lon="-0.41599">
        <ele>52.05</ele>
        <time>2016-08-21T13:02:43Z</time>
      </trkpt>
      <trkpt lat="49.28591" lon="-0.41619">
        <ele>52.05</ele>
        <time>2016-08-21T13:03:14Z</time>
      </trkpt>
      <trkpt lat="49.28556" lon="-0.41633">
        <ele>52.05</ele>
        <time>2016-08-21T13:07:33Z</time>
      </trkpt>
      <trkpt lat="49.28532" lon="-0.41623">
        <ele>52.05</ele>
        <time>2016-08-21T13:07:49Z</time>
      </trkpt>
      <trkpt lat="49.28485" lon="-0.41591">
        <ele>52.05</ele>
        <time>2016-08-21T13:07:59Z</time>
      </trkpt>
      <trkpt lat="49.2843" lon="-0.41592">
        <ele>51.57</ele>
        <time>2016-08-21T13:08:10Z</time>
      </trkpt>
      <trkpt lat="49.28419" lon="-0.41598">
        <ele>51.57</ele>
        <time>2016-08-21T13:08:12Z</time>
      </trkpt>
      <trkpt lat="49.2828" lon="-0.41719">
        <ele>52.53</ele>
        <time>2016-08-21T13:08:40Z</time>
      </trkpt>
      <trkpt lat="49.28187" lon="-0.41787">
        <ele>55.41</ele>
        <time>2016-08-21T13:08:59Z</time>
      </trkpt>
      <trkpt lat="49.28161" lon="-0.41799">
        <ele>57.82</ele>
        <time>2016-08-21T13:09:06Z</time>
      </trkpt>
      <trkpt lat="49.28141" lon="-0.41839">
        <ele>56.37</ele>
        <time>2016-08-21T13:09:19Z</time>
      </trkpt>
      <trkpt lat="49.28095" lon="-0.42027">
        <ele>58.3</ele>
        <time>2016-08-21T13:09:45Z</time>
      </trkpt>
      <trkpt lat="49.28069" lon="-0.42134">
        <ele>57.82</ele>
        <time>2016-08-21T13:10:02Z</time>
      </trkpt>
      <trkpt lat="49.28058" lon="-0.42149">
        <ele>56.37</ele>
        <time>2016-08-21T13:14:59Z</time>
      </trkpt>
      <trkpt lat="49.28049" lon="-0.4219">
        <ele>56.86</ele>
        <time>2016-08-21T13:15:16Z</time>
      </trkpt>
      <trkpt lat="49.28037" lon="-0.42236">
        <ele>56.86</ele>
        <time>2016-08-21T13:16:29Z</time>
      </trkpt>
      <trkpt lat="49.2804" lon="-0.42287">
        <ele>55.89</ele>
        <time>2016-08-21T13:16:36Z</time>
      </trkpt>
      <trkpt lat="49.28072" lon="-0.42464">
        <ele>56.86</ele>
        <time>2016-08-21T13:17:04Z</time>
      </trkpt>
      <trkpt lat="49.27947" lon="-0.42426">
        <ele>57.82</ele>
        <time>2016-08-21T13:23:13Z</time>
      </trkpt>
      <trkpt lat="49.27886" lon="-0.42374">
        <ele>57.34</ele>
        <time>2016-08-21T13:23:32Z</time>
      </trkpt>
      <trkpt lat="49.27858" lon="-0.42378">
        <ele>57.34</ele>
        <time>2016-08-21T13:23:39Z</time>
      </trkpt>
      <trkpt lat="49.27831" lon="-0.42446">
        <ele>55.41</ele>
        <time>2016-08-21T13:23:51Z</time>
      </trkpt>
      <trkpt lat="49.27806" lon="-0.42467">
        <ele>55.41</ele>
        <time>2016-08-21T13:23:57Z</time>
      </trkpt>
      <trkpt lat="49.27745" lon="-0.42487">
        <ele>54.93</ele>
        <time>2016-08-21T13:24:08Z</time>
      </trkpt>
      <trkpt lat="49.27688" lon="-0.42589">
        <ele>52.53</ele>
        <time>2016-08-21T13:24:23Z</time>
      </trkpt>
      <trkpt lat="49.27651" lon="-0.42674">
        <ele>53.97</ele>
        <time>2016-08-21T13:24:33Z</time>
      </trkpt>
      <trkpt lat="49.2754" lon="-0.42824">
        <ele>52.05</ele>
        <time>2016-08-21T13:25:01Z</time>
      </trkpt>
      <trkpt lat="49.27484" lon="-0.42893">
        <ele>51.09</ele>
        <time>2016-08-21T13:25:13Z</time>
      </trkpt>
      <trkpt lat="49.27377" lon="-0.43027">
        <ele>49.16</ele>
        <time>2016-08-21T13:25:35Z</time>
      </trkpt>
      <trkpt lat="49.27292" lon="-0.43148">
        <ele>46.28</ele>
        <time>2016-08-21T13:25:53Z</time>
      </trkpt>
      <trkpt lat="49.2722" lon="-0.43308">
        <ele>47.72</ele>
        <time>2016-08-21T13:26:16Z</time>
      </trkpt>
      <trkpt lat="49.27213" lon="-0.43324">
        <ele>45.8</ele>
        <time>2016-08-21T13:26:19Z</time>
      </trkpt>
      <trkpt lat="49.2716" lon="-0.43401">
        <ele>44.84</ele>
        <time>2016-08-21T13:26:35Z</time>
      </trkpt>
      <trkpt lat="49.27053" lon="-0.43491">
        <ele>43.88</ele>
        <time>2016-08-21T13:26:55Z</time>
      </trkpt>
      <trkpt lat="49.26989" lon="-0.43552">
        <ele>40.51</ele>
        <time>2016-08-21T13:27:07Z</time>
      </trkpt>
      <trkpt lat="49.26973" lon="-0.43566">
        <ele>42.44</ele>
        <time>2016-08-21T13:27:10Z</time>
      </trkpt>
      <trkpt lat="49.26956" lon="-0.43581">
        <ele>40.99</ele>
        <time>2016-08-21T13:27:13Z</time>
      </trkpt>
      <trkpt lat="49.26946" lon="-0.4359">
        <ele>42.44</ele>
        <time>2016-08-21T13:27:15Z</time>
      </trkpt>
      <trkpt lat="49.26922" lon="-0.43611">
        <ele>40.51</ele>
        <time>2016-08-21T13:27:20Z</time>
      </trkpt>
      <trkpt lat="49.26827" lon="-0.43699">
        <ele>41.47</ele>
        <time>2016-08-21T13:27:40Z</time>
      </trkpt>
      <trkpt lat="49.26679" lon="-0.43835">
        <ele>42.92</ele>
        <time>2016-08-21T13:28:10Z</time>
      </trkpt>
      <trkpt lat="49.26548" lon="-0.43953">
        <ele>43.88</ele>
        <time>2016-08-21T13:28:36Z</time>
      </trkpt>
      <trkpt lat="49.26487" lon="-0.44007">
        <ele>44.84</ele>
        <time>2016-08-21T13:28:48Z</time>
      </trkpt>
      <trkpt lat="49.26358" lon="-0.44118">
        <ele>38.11</ele>
        <time>2016-08-21T13:29:09Z</time>
      </trkpt>
      <trkpt lat="49.26325" lon="-0.44149">
        <ele>34.26</ele>
        <time>2016-08-21T13:29:14Z</time>
      </trkpt>
      <trkpt lat="49.26312" lon="-0.44162">
        <ele>33.3</ele>
        <time>2016-08-21T13:29:16Z</time>
      </trkpt>
      <trkpt lat="49.26271" lon="-0.44209">
        <ele>30.42</ele>
        <time>2016-08-21T13:29:22Z</time>
      </trkpt>
      <trkpt lat="49.26239" lon="-0.44252">
        <ele>27.53</ele>
        <time>2016-08-21T13:29:26Z</time>
      </trkpt>
      <trkpt lat="49.262" lon="-0.44292">
        <ele>25.61</ele>
        <time>2016-08-21T13:29:30Z</time>
      </trkpt>
      <trkpt lat="49.26168" lon="-0.44344">
        <ele>24.65</ele>
        <time>2016-08-21T13:29:34Z</time>
      </trkpt>
      <trkpt lat="49.26157" lon="-0.44371">
        <ele>24.65</ele>
        <time>2016-08-21T13:29:36Z</time>
      </trkpt>
      <trkpt lat="49.26117" lon="-0.44418">
        <ele>26.57</ele>
        <time>2016-08-21T13:29:42Z</time>
      </trkpt>
      <trkpt lat="49.26017" lon="-0.44476">
        <ele>25.61</ele>
        <time>2016-08-21T13:29:58Z</time>
      </trkpt>
      <trkpt lat="49.259" lon="-0.44502">
        <ele>23.21</ele>
        <time>2016-08-21T13:30:18Z</time>
      </trkpt>
      <trkpt lat="49.25847" lon="-0.44581">
        <ele>23.21</ele>
        <time>2016-08-21T13:30:30Z</time>
      </trkpt>
      <trkpt lat="49.25837" lon="-0.44645">
        <ele>22.73</ele>
        <time>2016-08-21T13:30:38Z</time>
      </trkpt>
      <trkpt lat="49.25839" lon="-0.44679">
        <ele>22.73</ele>
        <time>2016-08-21T13:30:42Z</time>
      </trkpt>
      <trkpt lat="49.25843" lon="-0.44706">
        <ele>23.21</ele>
        <time>2016-08-21T13:30:45Z</time>
      </trkpt>
      <trkpt lat="49.25898" lon="-0.4493">
        <ele>26.09</ele>
        <time>2016-08-21T13:31:13Z</time>
      </trkpt>
      <trkpt lat="49.25908" lon="-0.44959">
        <ele>28.02</ele>
        <time>2016-08-21T13:31:17Z</time>
      </trkpt>
      <trkpt lat="49.2591" lon="-0.4498">
        <ele>27.53</ele>
        <time>2016-08-21T13:31:20Z</time>
      </trkpt>
      <trkpt lat="49.25888" lon="-0.45028">
        <ele>27.05</ele>
        <time>2016-08-21T13:31:35Z</time>
      </trkpt>
      <trkpt lat="49.25889" lon="-0.45013">
        <ele>27.05</ele>
        <time>2016-08-21T13:32:30Z</time>
      </trkpt>
      <trkpt lat="49.25918" lon="-0.44987">
        <ele>26.09</ele>
        <time>2016-08-21T13:32:38Z</time>
      </trkpt>
      <trkpt lat="49.25976" lon="-0.44956">
        <ele>28.02</ele>
        <time>2016-08-21T13:32:55Z</time>
      </trkpt>
      <trkpt lat="49.26124" lon="-0.44808">
        <ele>28.98</ele>
        <time>2016-08-21T13:36:03Z</time>
      </trkpt>
      <trkpt lat="49.26129" lon="-0.44789">
        <ele>29.46</ele>
        <time>2016-08-21T13:38:07Z</time>
      </trkpt>
      <trkpt lat="49.25971" lon="-0.4496">
        <ele>25.13</ele>
        <time>2016-08-21T13:42:39Z</time>
      </trkpt>
      <trkpt lat="49.25911" lon="-0.45021">
        <ele>24.17</ele>
        <time>2016-08-21T13:42:56Z</time>
      </trkpt>
      <trkpt lat="49.25877" lon="-0.45103">
        <ele>23.69</ele>
        <time>2016-08-21T13:43:13Z</time>
      </trkpt>
      <trkpt lat="49.25811" lon="-0.45571">
        <ele>26.57</ele>
        <time>2016-08-21T13:44:26Z</time>
      </trkpt>
      <trkpt lat="49.25802" lon="-0.45788">
        <ele>25.61</ele>
        <time>2016-08-21T13:45:04Z</time>
      </trkpt>
      <trkpt lat="49.25808" lon="-0.45832">
        <ele>26.09</ele>
        <time>2016-08-21T13:45:19Z</time>
      </trkpt>
      <trkpt lat="49.25795" lon="-0.45982">
        <ele>28.98</ele>
        <time>2016-08-21T13:45:42Z</time>
      </trkpt>
      <trkpt lat="49.25788" lon="-0.46052">
        <ele>30.42</ele>
        <time>2016-08-21T13:45:52Z</time>
      </trkpt>
      <trkpt lat="49.25741" lon="-0.46401">
        <ele>32.34</ele>
        <time>2016-08-21T13:46:37Z</time>
      </trkpt>
      <trkpt lat="49.25728" lon="-0.46456">
        <ele>34.26</ele>
        <time>2016-08-21T13:46:44Z</time>
      </trkpt>
      <trkpt lat="49.25721" lon="-0.46481">
        <ele>33.78</ele>
        <time>2016-08-21T13:46:48Z</time>
      </trkpt>
      <trkpt lat="49.25714" lon="-0.46509">
        <ele>32.82</ele>
        <time>2016-08-21T13:46:53Z</time>
      </trkpt>
      <trkpt lat="49.25695" lon="-0.46578">
        <ele>34.74</ele>
        <time>2016-08-21T13:47:05Z</time>
      </trkpt>
      <trkpt lat="49.25646" lon="-0.46777">
        <ele>35.23</ele>
        <time>2016-08-21T13:47:37Z</time>
      </trkpt>
      <trkpt lat="49.25595" lon="-0.46932">
        <ele>37.63</ele>
        <time>2016-08-21T13:48:01Z</time>
      </trkpt>
      <trkpt lat="49.25583" lon="-0.46957">
        <ele>38.11</ele>
        <time>2016-08-21T13:48:05Z</time>
      </trkpt>
      <trkpt lat="49.25556" lon="-0.47043">
        <ele>39.07</ele>
        <time>2016-08-21T13:48:17Z</time>
      </trkpt>
      <trkpt lat="49.25547" lon="-0.47096">
        <ele>39.55</ele>
        <time>2016-08-21T13:48:25Z</time>
      </trkpt>
      <trkpt lat="49.25543" lon="-0.47123">
        <ele>40.03</ele>
        <time>2016-08-21T13:48:29Z</time>
      </trkpt>
      <trkpt lat="49.25528" lon="-0.47217">
        <ele>41.95</ele>
        <time>2016-08-21T13:48:42Z</time>
      </trkpt>
      <trkpt lat="49.25515" lon="-0.47376">
        <ele>45.32</ele>
        <time>2016-08-21T13:49:05Z</time>
      </trkpt>
      <trkpt lat="49.25497" lon="-0.47561">
        <ele>48.2</ele>
        <time>2016-08-21T13:49:31Z</time>
      </trkpt>
      <trkpt lat="49.25441" lon="-0.47915">
        <ele>47.24</ele>
        <time>2016-08-21T13:50:35Z</time>
      </trkpt>
      <trkpt lat="49.25383" lon="-0.48007">
        <ele>47.24</ele>
        <time>2016-08-21T13:50:59Z</time>
      </trkpt>
      <trkpt lat="49.25281" lon="-0.4816">
        <ele>47.24</ele>
        <time>2016-08-21T13:51:25Z</time>
      </trkpt>
      <trkpt lat="49.25207" lon="-0.48287">
        <ele>44.84</ele>
        <time>2016-08-21T13:51:45Z</time>
      </trkpt>
      <trkpt lat="49.25066" lon="-0.48538">
        <ele>47.24</ele>
        <time>2016-08-21T13:52:27Z</time>
      </trkpt>
      <trkpt lat="49.24961" lon="-0.48431">
        <ele>46.28</ele>
        <time>2016-08-21T13:54:34Z</time>
      </trkpt>
      <trkpt lat="49.24957" lon="-0.48452">
        <ele>48.2</ele>
        <time>2016-08-21T13:57:29Z</time>
      </trkpt>
      <trkpt lat="49.24959" lon="-0.48461">
        <ele>48.2</ele>
        <time>2016-08-21T13:57:33Z</time>
      </trkpt>
      <trkpt lat="49.25013" lon="-0.48517">
        <ele>46.76</ele>
        <time>2016-08-21T13:57:52Z</time>
      </trkpt>
      <trkpt lat="49.2504" lon="-0.48528">
        <ele>46.28</ele>
        <time>2016-08-21T13:57:58Z</time>
      </trkpt>
      <trkpt lat="49.25083" lon="-0.48541">
        <ele>47.24</ele>
        <time>2016-08-21T13:58:09Z</time>
      </trkpt>
      <trkpt lat="49.25162" lon="-0.48585">
        <ele>49.65</ele>
        <time>2016-08-21T13:58:32Z</time>
      </trkpt>
      <trkpt lat="49.25194" lon="-0.48655">
        <ele>49.65</ele>
        <time>2016-08-21T13:58:48Z</time>
      </trkpt>
      <trkpt lat="49.2524" lon="-0.48774">
        <ele>51.57</ele>
        <time>2016-08-21T13:59:08Z</time>
      </trkpt>
      <trkpt lat="49.25275" lon="-0.48892">
        <ele>52.05</ele>
        <time>2016-08-21T13:59:25Z</time>
      </trkpt>
      <trkpt lat="49.25278" lon="-0.48913">
        <ele>54.93</ele>
        <time>2016-08-21T13:59:28Z</time>
      </trkpt>
      <trkpt lat="49.25281" lon="-0.48933">
        <ele>52.05</ele>
        <time>2016-08-21T13:59:31Z</time>
      </trkpt>
      <trkpt lat="49.25302" lon="-0.49097">
        <ele>53.01</ele>
        <time>2016-08-21T13:59:52Z</time>
      </trkpt>
      <trkpt lat="49.25319" lon="-0.49223">
        <ele>55.89</ele>
        <time>2016-08-21T14:00:08Z</time>
      </trkpt>
      <trkpt lat="49.2534" lon="-0.49366">
        <ele>53.97</ele>
        <time>2016-08-21T14:00:26Z</time>
      </trkpt>
      <trkpt lat="49.25356" lon="-0.49454">
        <ele>56.86</ele>
        <time>2016-08-21T14:00:38Z</time>
      </trkpt>
      <trkpt lat="49.25392" lon="-0.49629">
        <ele>56.37</ele>
        <time>2016-08-21T14:01:03Z</time>
      </trkpt>
      <trkpt lat="49.25399" lon="-0.49667">
        <ele>55.89</ele>
        <time>2016-08-21T14:01:09Z</time>
      </trkpt>
      <trkpt lat="49.25413" lon="-0.49762">
        <ele>56.37</ele>
        <time>2016-08-21T14:01:22Z</time>
      </trkpt>
      <trkpt lat="49.25441" lon="-0.49944">
        <ele>57.34</ele>
        <time>2016-08-21T14:01:46Z</time>
      </trkpt>
      <trkpt lat="49.2547" lon="-0.50126">
        <ele>56.37</ele>
        <time>2016-08-21T14:02:08Z</time>
      </trkpt>
      <trkpt lat="49.25504" lon="-0.50265">
        <ele>54.93</ele>
        <time>2016-08-21T14:02:26Z</time>
      </trkpt>
      <trkpt lat="49.25559" lon="-0.50427">
        <ele>53.01</ele>
        <time>2016-08-21T14:02:49Z</time>
      </trkpt>
      <trkpt lat="49.25581" lon="-0.50477">
        <ele>51.09</ele>
        <time>2016-08-21T14:02:57Z</time>
      </trkpt>
      <trkpt lat="49.25632" lon="-0.5056">
        <ele>47.72</ele>
        <time>2016-08-21T14:03:11Z</time>
      </trkpt>
      <trkpt lat="49.25641" lon="-0.5057">
        <ele>47.24</ele>
        <time>2016-08-21T14:03:13Z</time>
      </trkpt>
      <trkpt lat="49.25662" lon="-0.5059">
        <ele>45.8</ele>
        <time>2016-08-21T14:03:17Z</time>
      </trkpt>
      <trkpt lat="49.25693" lon="-0.5061">
        <ele>44.36</ele>
        <time>2016-08-21T14:03:22Z</time>
      </trkpt>
      <trkpt lat="49.25708" lon="-0.50614">
        <ele>42.44</ele>
        <time>2016-08-21T14:03:25Z</time>
      </trkpt>
      <trkpt lat="49.25717" lon="-0.50615">
        <ele>40.99</ele>
        <time>2016-08-21T14:03:27Z</time>
      </trkpt>
      <trkpt lat="49.25732" lon="-0.50659">
        <ele>40.99</ele>
        <time>2016-08-21T14:03:36Z</time>
      </trkpt>
      <trkpt lat="49.257" lon="-0.50723">
        <ele>34.74</ele>
        <time>2016-08-21T14:03:44Z</time>
      </trkpt>
      <trkpt lat="49.25691" lon="-0.50738">
        <ele>33.3</ele>
        <time>2016-08-21T14:03:46Z</time>
      </trkpt>
      <trkpt lat="49.25672" lon="-0.50779">
        <ele>31.38</ele>
        <time>2016-08-21T14:03:51Z</time>
      </trkpt>
      <trkpt lat="49.25666" lon="-0.50849">
        <ele>30.42</ele>
        <time>2016-08-21T14:03:58Z</time>
      </trkpt>
      <trkpt lat="49.25677" lon="-0.50898">
        <ele>28.98</ele>
        <time>2016-08-21T14:04:04Z</time>
      </trkpt>
      <trkpt lat="49.25714" lon="-0.50998">
        <ele>27.05</ele>
        <time>2016-08-21T14:04:17Z</time>
      </trkpt>
      <trkpt lat="49.25712" lon="-0.51032">
        <ele>27.05</ele>
        <time>2016-08-21T14:04:21Z</time>
      </trkpt>
      <trkpt lat="49.25702" lon="-0.51069">
        <ele>27.53</ele>
        <time>2016-08-21T14:04:26Z</time>
      </trkpt>
      <trkpt lat="49.25677" lon="-0.5117">
        <ele>31.38</ele>
        <time>2016-08-21T14:04:40Z</time>
      </trkpt>
      <trkpt lat="49.25679" lon="-0.51191">
        <ele>27.05</ele>
        <time>2016-08-21T14:04:43Z</time>
      </trkpt>
      <trkpt lat="49.25686" lon="-0.51208">
        <ele>26.57</ele>
        <time>2016-08-21T14:04:45Z</time>
      </trkpt>
      <trkpt lat="49.25731" lon="-0.51289">
        <ele>23.21</ele>
        <time>2016-08-21T14:04:55Z</time>
      </trkpt>
      <trkpt lat="49.25759" lon="-0.51334">
        <ele>20.81</ele>
        <time>2016-08-21T14:05:01Z</time>
      </trkpt>
      <trkpt lat="49.25785" lon="-0.5138">
        <ele>18.88</ele>
        <time>2016-08-21T14:05:07Z</time>
      </trkpt>
      <trkpt lat="49.25841" lon="-0.51482">
        <ele>15.52</ele>
        <time>2016-08-21T14:05:20Z</time>
      </trkpt>
      <trkpt lat="49.25857" lon="-0.51527">
        <ele>16</ele>
        <time>2016-08-21T14:05:34Z</time>
      </trkpt>
      <trkpt lat="49.25877" lon="-0.51546">
        <ele>17.92</ele>
        <time>2016-08-21T14:06:04Z</time>
      </trkpt>
      <trkpt lat="49.25883" lon="-0.51529">
        <ele>18.88</ele>
        <time>2016-08-21T14:06:23Z</time>
      </trkpt>
      <trkpt lat="49.25888" lon="-0.51519">
        <ele>19.36</ele>
        <time>2016-08-21T14:07:12Z</time>
      </trkpt>
      <trkpt lat="49.25893" lon="-0.51536">
        <ele>20.81</ele>
        <time>2016-08-21T14:07:55Z</time>
      </trkpt>
      <trkpt lat="49.25884" lon="-0.51556">
        <ele>20.32</ele>
        <time>2016-08-21T14:08:01Z</time>
      </trkpt>
      <trkpt lat="49.25865" lon="-0.51596">
        <ele>20.32</ele>
        <time>2016-08-21T14:08:07Z</time>
      </trkpt>
      <trkpt lat="49.25801" lon="-0.51697">
        <ele>19.84</ele>
        <time>2016-08-21T14:08:24Z</time>
      </trkpt>
      <trkpt lat="49.25673" lon="-0.51883">
        <ele>19.36</ele>
        <time>2016-08-21T14:08:54Z</time>
      </trkpt>
      <trkpt lat="49.25537" lon="-0.52044">
        <ele>20.81</ele>
        <time>2016-08-21T14:09:43Z</time>
      </trkpt>
      <trkpt lat="49.25528" lon="-0.52066">
        <ele>20.32</ele>
        <time>2016-08-21T14:09:54Z</time>
      </trkpt>
      <trkpt lat="49.25476" lon="-0.52156">
        <ele>20.81</ele>
        <time>2016-08-21T14:10:09Z</time>
      </trkpt>
      <trkpt lat="49.25464" lon="-0.52182">
        <ele>21.77</ele>
        <time>2016-08-21T14:10:13Z</time>
      </trkpt>
      <trkpt lat="49.254" lon="-0.52366">
        <ele>21.77</ele>
        <time>2016-08-21T14:10:36Z</time>
      </trkpt>
      <trkpt lat="49.25128" lon="-0.52835">
        <ele>25.61</ele>
        <time>2016-08-21T14:12:01Z</time>
      </trkpt>
      <trkpt lat="49.25079" lon="-0.52943">
        <ele>26.09</ele>
        <time>2016-08-21T14:12:22Z</time>
      </trkpt>
      <trkpt lat="49.25042" lon="-0.53017">
        <ele>26.57</ele>
        <time>2016-08-21T14:12:39Z</time>
      </trkpt>
      <trkpt lat="49.25011" lon="-0.53167">
        <ele>27.05</ele>
        <time>2016-08-21T14:13:01Z</time>
      </trkpt>
      <trkpt lat="49.2517" lon="-0.5383">
        <ele>55.41</ele>
        <time>2016-08-21T14:15:19Z</time>
      </trkpt>
      <trkpt lat="49.25177" lon="-0.53897">
        <ele>56.86</ele>
        <time>2016-08-21T14:15:49Z</time>
      </trkpt>
      <trkpt lat="49.25183" lon="-0.53927">
        <ele>53.97</ele>
        <time>2016-08-21T14:16:09Z</time>
      </trkpt>
      <trkpt lat="49.25186" lon="-0.5395">
        <ele>53.49</ele>
        <time>2016-08-21T14:16:13Z</time>
      </trkpt>
      <trkpt lat="49.25202" lon="-0.54045">
        <ele>56.86</ele>
        <time>2016-08-21T14:16:27Z</time>
      </trkpt>
      <trkpt lat="49.25214" lon="-0.54144">
        <ele>59.74</ele>
        <time>2016-08-21T14:16:41Z</time>
      </trkpt>
      <trkpt lat="49.25219" lon="-0.54195">
        <ele>60.22</ele>
        <time>2016-08-21T14:16:48Z</time>
      </trkpt>
      <trkpt lat="49.25224" lon="-0.5438">
        <ele>62.14</ele>
        <time>2016-08-21T14:17:14Z</time>
      </trkpt>
      <trkpt lat="49.25218" lon="-0.54569">
        <ele>60.7</ele>
        <time>2016-08-21T14:17:39Z</time>
      </trkpt>
      <trkpt lat="49.25214" lon="-0.54663">
        <ele>65.03</ele>
        <time>2016-08-21T14:17:51Z</time>
      </trkpt>
      <trkpt lat="49.25214" lon="-0.54713">
        <ele>61.66</ele>
        <time>2016-08-21T14:17:58Z</time>
      </trkpt>
      <trkpt lat="49.25227" lon="-0.54892">
        <ele>62.62</ele>
        <time>2016-08-21T14:18:22Z</time>
      </trkpt>
      <trkpt lat="49.25247" lon="-0.55133">
        <ele>62.62</ele>
        <time>2016-08-21T14:18:51Z</time>
      </trkpt>
      <trkpt lat="49.25257" lon="-0.55311">
        <ele>61.66</ele>
        <time>2016-08-21T14:19:12Z</time>
      </trkpt>
      <trkpt lat="49.25264" lon="-0.55426">
        <ele>63.58</ele>
        <time>2016-08-21T14:19:27Z</time>
      </trkpt>
      <trkpt lat="49.25275" lon="-0.55579">
        <ele>61.18</ele>
        <time>2016-08-21T14:19:45Z</time>
      </trkpt>
      <trkpt lat="49.25262" lon="-0.55722">
        <ele>59.26</ele>
        <time>2016-08-21T14:20:03Z</time>
      </trkpt>
      <trkpt lat="49.25255" lon="-0.55778">
        <ele>58.78</ele>
        <time>2016-08-21T14:20:10Z</time>
      </trkpt>
      <trkpt lat="49.25242" lon="-0.55897">
        <ele>57.82</ele>
        <time>2016-08-21T14:20:24Z</time>
      </trkpt>
      <trkpt lat="49.25243" lon="-0.56013">
        <ele>54.45</ele>
        <time>2016-08-21T14:20:38Z</time>
      </trkpt>
      <trkpt lat="49.25244" lon="-0.56057">
        <ele>53.49</ele>
        <time>2016-08-21T14:20:43Z</time>
      </trkpt>
      <trkpt lat="49.25257" lon="-0.5608">
        <ele>53.01</ele>
        <time>2016-08-21T14:20:48Z</time>
      </trkpt>
      <trkpt lat="49.25274" lon="-0.56096">
        <ele>52.53</ele>
        <time>2016-08-21T14:20:53Z</time>
      </trkpt>
      <trkpt lat="49.25259" lon="-0.56146">
        <ele>53.49</ele>
        <time>2016-08-21T14:21:04Z</time>
      </trkpt>
      <trkpt lat="49.25236" lon="-0.56196">
        <ele>52.53</ele>
        <time>2016-08-21T14:21:20Z</time>
      </trkpt>
      <trkpt lat="49.25209" lon="-0.56225">
        <ele>52.05</ele>
        <time>2016-08-21T14:22:24Z</time>
      </trkpt>
      <trkpt lat="49.25192" lon="-0.56226">
        <ele>53.01</ele>
        <time>2016-08-21T14:22:41Z</time>
      </trkpt>
      <trkpt lat="49.25179" lon="-0.56229">
        <ele>53.49</ele>
        <time>2016-08-21T14:24:52Z</time>
      </trkpt>
      <trkpt lat="49.25214" lon="-0.56229">
        <ele>52.53</ele>
        <time>2016-08-21T14:25:04Z</time>
      </trkpt>
      <trkpt lat="49.25233" lon="-0.56241">
        <ele>50.13</ele>
        <time>2016-08-21T14:25:11Z</time>
      </trkpt>
      <trkpt lat="49.25252" lon="-0.56256">
        <ele>47.72</ele>
        <time>2016-08-21T14:25:17Z</time>
      </trkpt>
      <trkpt lat="49.25311" lon="-0.5633">
        <ele>43.4</ele>
        <time>2016-08-21T14:25:28Z</time>
      </trkpt>
      <trkpt lat="49.2535" lon="-0.56388">
        <ele>43.4</ele>
        <time>2016-08-21T14:25:36Z</time>
      </trkpt>
      <trkpt lat="49.2535" lon="-0.56424">
        <ele>45.32</ele>
        <time>2016-08-21T14:25:44Z</time>
      </trkpt>
      <trkpt lat="49.25338" lon="-0.56455">
        <ele>45.32</ele>
        <time>2016-08-21T14:26:01Z</time>
      </trkpt>
      <trkpt lat="49.25289" lon="-0.56535">
        <ele>48.2</ele>
        <time>2016-08-21T14:26:17Z</time>
      </trkpt>
      <trkpt lat="49.25272" lon="-0.56552">
        <ele>48.68</ele>
        <time>2016-08-21T14:26:21Z</time>
      </trkpt>
      <trkpt lat="49.25254" lon="-0.56577">
        <ele>50.13</ele>
        <time>2016-08-21T14:26:26Z</time>
      </trkpt>
      <trkpt lat="49.25244" lon="-0.56591">
        <ele>49.65</ele>
        <time>2016-08-21T14:26:29Z</time>
      </trkpt>
      <trkpt lat="49.25244" lon="-0.56625">
        <ele>51.57</ele>
        <time>2016-08-21T14:26:35Z</time>
      </trkpt>
      <trkpt lat="49.25322" lon="-0.56759">
        <ele>53.01</ele>
        <time>2016-08-21T14:26:59Z</time>
      </trkpt>
      <trkpt lat="49.25335" lon="-0.56779">
        <ele>53.49</ele>
        <time>2016-08-21T14:27:03Z</time>
      </trkpt>
      <trkpt lat="49.2537" lon="-0.56914">
        <ele>52.53</ele>
        <time>2016-08-21T14:27:22Z</time>
      </trkpt>
      <trkpt lat="49.25402" lon="-0.57095">
        <ele>52.05</ele>
        <time>2016-08-21T14:27:43Z</time>
      </trkpt>
      <trkpt lat="49.25421" lon="-0.57142">
        <ele>53.01</ele>
        <time>2016-08-21T14:27:50Z</time>
      </trkpt>
      <trkpt lat="49.25435" lon="-0.57194">
        <ele>53.49</ele>
        <time>2016-08-21T14:27:57Z</time>
      </trkpt>
      <trkpt lat="49.25457" lon="-0.57373">
        <ele>57.34</ele>
        <time>2016-08-21T14:28:22Z</time>
      </trkpt>
      <trkpt lat="49.25467" lon="-0.57494">
        <ele>60.22</ele>
        <time>2016-08-21T14:28:39Z</time>
      </trkpt>
      <trkpt lat="49.25496" lon="-0.57702">
        <ele>62.62</ele>
        <time>2016-08-21T14:29:08Z</time>
      </trkpt>
      <trkpt lat="49.25517" lon="-0.5777">
        <ele>64.07</ele>
        <time>2016-08-21T14:29:18Z</time>
      </trkpt>
      <trkpt lat="49.2566" lon="-0.58124">
        <ele>54.93</ele>
        <time>2016-08-21T14:30:08Z</time>
      </trkpt>
      <trkpt lat="49.25705" lon="-0.58204">
        <ele>52.05</ele>
        <time>2016-08-21T14:30:21Z</time>
      </trkpt>
      <trkpt lat="49.25763" lon="-0.58087">
        <ele>53.49</ele>
        <time>2016-08-21T14:30:44Z</time>
      </trkpt>
      <trkpt lat="49.25828" lon="-0.57949">
        <ele>53.49</ele>
        <time>2016-08-21T14:31:03Z</time>
      </trkpt>
      <trkpt lat="49.25892" lon="-0.57807">
        <ele>55.41</ele>
        <time>2016-08-21T14:31:23Z</time>
      </trkpt>
      <trkpt lat="49.25961" lon="-0.57661">
        <ele>53.49</ele>
        <time>2016-08-21T14:31:45Z</time>
      </trkpt>
      <trkpt lat="49.26051" lon="-0.57474">
        <ele>54.45</ele>
        <time>2016-08-21T14:32:12Z</time>
      </trkpt>
      <trkpt lat="49.26099" lon="-0.57346">
        <ele>54.93</ele>
        <time>2016-08-21T14:32:29Z</time>
      </trkpt>
      <trkpt lat="49.26107" lon="-0.57327">
        <ele>55.41</ele>
        <time>2016-08-21T14:32:32Z</time>
      </trkpt>
      <trkpt lat="49.26141" lon="-0.57328">
        <ele>52.05</ele>
        <time>2016-08-21T14:32:46Z</time>
      </trkpt>
      <trkpt lat="49.26221" lon="-0.57447">
        <ele>39.55</ele>
        <time>2016-08-21T14:33:14Z</time>
      </trkpt>
      <trkpt lat="49.26244" lon="-0.5748">
        <ele>38.11</ele>
        <time>2016-08-21T14:33:20Z</time>
      </trkpt>
      <trkpt lat="49.26291" lon="-0.57508">
        <ele>34.26</ele>
        <time>2016-08-21T14:33:33Z</time>
      </trkpt>
      <trkpt lat="49.26339" lon="-0.57506">
        <ele>33.3</ele>
        <time>2016-08-21T14:33:56Z</time>
      </trkpt>
      <trkpt lat="49.26377" lon="-0.57496">
        <ele>31.38</ele>
        <time>2016-08-21T14:34:13Z</time>
      </trkpt>
      <trkpt lat="49.26389" lon="-0.57493">
        <ele>32.34</ele>
        <time>2016-08-21T14:34:29Z</time>
      </trkpt>
      <trkpt lat="49.26389" lon="-0.57466">
        <ele>31.38</ele>
        <time>2016-08-21T14:38:44Z</time>
      </trkpt>
      <trkpt lat="49.26746" lon="-0.57244">
        <ele>26.57</ele>
        <time>2016-08-21T14:41:56Z</time>
      </trkpt>
      <trkpt lat="49.26872" lon="-0.5719">
        <ele>25.13</ele>
        <time>2016-08-21T14:42:18Z</time>
      </trkpt>
      <trkpt lat="49.27189" lon="-0.57012">
        <ele>24.65</ele>
        <time>2016-08-21T14:43:16Z</time>
      </trkpt>
      <trkpt lat="49.27266" lon="-0.56995">
        <ele>21.29</ele>
        <time>2016-08-21T14:43:27Z</time>
      </trkpt>
      <trkpt lat="49.27554" lon="-0.56827">
        <ele>18.4</ele>
        <time>2016-08-21T14:44:19Z</time>
      </trkpt>
      <trkpt lat="49.27622" lon="-0.56793">
        <ele>18.4</ele>
        <time>2016-08-21T14:44:33Z</time>
      </trkpt>
      <trkpt lat="49.27637" lon="-0.56785">
        <ele>16.48</ele>
        <time>2016-08-21T14:44:38Z</time>
      </trkpt>
      <trkpt lat="49.27764" lon="-0.56742">
        <ele>15.52</ele>
        <time>2016-08-21T14:45:11Z</time>
      </trkpt>
      <trkpt lat="49.27735" lon="-0.56602">
        <ele>19.36</ele>
        <time>2016-08-21T14:45:48Z</time>
      </trkpt>
      <trkpt lat="49.2772" lon="-0.56562">
        <ele>20.81</ele>
        <time>2016-08-21T14:46:14Z</time>
      </trkpt>
      <trkpt lat="49.27689" lon="-0.56464">
        <ele>22.25</ele>
        <time>2016-08-21T14:46:32Z</time>
      </trkpt>
      <trkpt lat="49.2788" lon="-0.56467">
        <ele>17.44</ele>
        <time>2016-08-21T14:47:22Z</time>
      </trkpt>
      <trkpt lat="49.2789" lon="-0.56494">
        <ele>17.44</ele>
        <time>2016-08-21T14:47:41Z</time>
      </trkpt>
      <trkpt lat="49.279" lon="-0.56509">
        <ele>17.92</ele>
        <time>2016-08-21T14:48:09Z</time>
      </trkpt>
      <trkpt lat="49.27919" lon="-0.56519">
        <ele>16</ele>
        <time>2016-08-21T14:48:43Z</time>
      </trkpt>
      <trkpt lat="49.27935" lon="-0.56531">
        <ele>16</ele>
        <time>2016-08-21T14:49:43Z</time>
      </trkpt>
      <trkpt lat="49.27945" lon="-0.56553">
        <ele>15.52</ele>
        <time>2016-08-21T14:49:56Z</time>
      </trkpt>
      <trkpt lat="49.27931" lon="-0.56597">
        <ele>15.52</ele>
        <time>2016-08-21T14:50:17Z</time>
      </trkpt>
      <trkpt lat="49.27929" lon="-0.56656">
        <ele>14.56</ele>
        <time>2016-08-21T14:50:38Z</time>
      </trkpt>
      <trkpt lat="49.27932" lon="-0.56674">
        <ele>14.08</ele>
        <time>2016-08-21T14:50:49Z</time>
      </trkpt>
      <trkpt lat="49.27941" lon="-0.56675">
        <ele>14.56</ele>
        <time>2016-08-21T14:50:53Z</time>
      </trkpt>
      <trkpt lat="49.27961" lon="-0.56678">
        <ele>14.08</ele>
        <time>2016-08-21T14:50:57Z</time>
      </trkpt>
      <trkpt lat="49.28071" lon="-0.5665">
        <ele>14.56</ele>
        <time>2016-08-21T14:51:21Z</time>
      </trkpt>
      <trkpt lat="49.28142" lon="-0.56646">
        <ele>14.56</ele>
        <time>2016-08-21T14:51:45Z</time>
      </trkpt>
      <trkpt lat="49.28256" lon="-0.56622">
        <ele>21.29</ele>
        <time>2016-08-21T14:52:20Z</time>
      </trkpt>
      <trkpt lat="49.28294" lon="-0.56562">
        <ele>24.17</ele>
        <time>2016-08-21T14:52:30Z</time>
      </trkpt>
      <trkpt lat="49.28323" lon="-0.56527">
        <ele>25.61</ele>
        <time>2016-08-21T14:52:37Z</time>
      </trkpt>
      <trkpt lat="49.28338" lon="-0.5652">
        <ele>27.05</ele>
        <time>2016-08-21T14:52:40Z</time>
      </trkpt>
      <trkpt lat="49.28379" lon="-0.56501">
        <ele>30.42</ele>
        <time>2016-08-21T14:52:49Z</time>
      </trkpt>
      <trkpt lat="49.28397" lon="-0.56494">
        <ele>31.86</ele>
        <time>2016-08-21T14:52:53Z</time>
      </trkpt>
      <trkpt lat="49.28436" lon="-0.56481">
        <ele>34.74</ele>
        <time>2016-08-21T14:53:02Z</time>
      </trkpt>
      <trkpt lat="49.28477" lon="-0.56481">
        <ele>38.59</ele>
        <time>2016-08-21T14:53:11Z</time>
      </trkpt>
      <trkpt lat="49.28507" lon="-0.56485">
        <ele>41.95</ele>
        <time>2016-08-21T14:53:18Z</time>
      </trkpt>
      <trkpt lat="49.28512" lon="-0.56486">
        <ele>41.47</ele>
        <time>2016-08-21T14:53:19Z</time>
      </trkpt>
      <trkpt lat="49.28616" lon="-0.56501">
        <ele>44.84</ele>
        <time>2016-08-21T14:53:40Z</time>
      </trkpt>
      <trkpt lat="49.28745" lon="-0.56518">
        <ele>43.88</ele>
        <time>2016-08-21T14:54:04Z</time>
      </trkpt>
      <trkpt lat="49.29021" lon="-0.56557">
        <ele>39.55</ele>
        <time>2016-08-21T14:54:53Z</time>
      </trkpt>
      <trkpt lat="49.29167" lon="-0.56523">
        <ele>40.51</ele>
        <time>2016-08-21T14:55:41Z</time>
      </trkpt>
      <trkpt lat="49.2919" lon="-0.56525">
        <ele>43.4</ele>
        <time>2016-08-21T14:55:53Z</time>
      </trkpt>
      <trkpt lat="49.29538" lon="-0.56425">
        <ele>55.41</ele>
        <time>2016-08-21T14:57:24Z</time>
      </trkpt>
      <trkpt lat="49.29651" lon="-0.56358">
        <ele>57.34</ele>
        <time>2016-08-21T14:57:46Z</time>
      </trkpt>
      <trkpt lat="49.29783" lon="-0.56281">
        <ele>57.82</ele>
        <time>2016-08-21T14:58:11Z</time>
      </trkpt>
      <trkpt lat="49.29855" lon="-0.56183">
        <ele>59.26</ele>
        <time>2016-08-21T14:58:29Z</time>
      </trkpt>
      <trkpt lat="49.29859" lon="-0.56177">
        <ele>59.26</ele>
        <time>2016-08-21T14:58:30Z</time>
      </trkpt>
      <trkpt lat="49.29965" lon="-0.56105">
        <ele>59.26</ele>
        <time>2016-08-21T14:58:51Z</time>
      </trkpt>
      <trkpt lat="49.30075" lon="-0.56038">
        <ele>59.74</ele>
        <time>2016-08-21T14:59:12Z</time>
      </trkpt>
      <trkpt lat="49.30177" lon="-0.55936">
        <ele>58.3</ele>
        <time>2016-08-21T14:59:32Z</time>
      </trkpt>
      <trkpt lat="49.30287" lon="-0.55856">
        <ele>57.82</ele>
        <time>2016-08-21T14:59:52Z</time>
      </trkpt>
      <trkpt lat="49.30416" lon="-0.5575">
        <ele>55.41</ele>
        <time>2016-08-21T15:00:16Z</time>
      </trkpt>
      <trkpt lat="49.3057" lon="-0.55599">
        <ele>54.93</ele>
        <time>2016-08-21T15:00:44Z</time>
      </trkpt>
      <trkpt lat="49.30721" lon="-0.55443">
        <ele>53.97</ele>
        <time>2016-08-21T15:01:12Z</time>
      </trkpt>
      <trkpt lat="49.30816" lon="-0.55286">
        <ele>51.57</ele>
        <time>2016-08-21T15:01:34Z</time>
      </trkpt>
      <trkpt lat="49.30906" lon="-0.55126">
        <ele>51.09</ele>
        <time>2016-08-21T15:01:58Z</time>
      </trkpt>
      <trkpt lat="49.30951" lon="-0.55017">
        <ele>49.65</ele>
        <time>2016-08-21T15:02:14Z</time>
      </trkpt>
      <trkpt lat="49.31002" lon="-0.55">
        <ele>48.2</ele>
        <time>2016-08-21T15:02:23Z</time>
      </trkpt>
      <trkpt lat="49.31224" lon="-0.54931">
        <ele>45.32</ele>
        <time>2016-08-21T15:03:19Z</time>
      </trkpt>
      <trkpt lat="49.3128" lon="-0.54875">
        <ele>43.88</ele>
        <time>2016-08-21T15:06:03Z</time>
      </trkpt>
      <trkpt lat="49.31314" lon="-0.54823">
        <ele>44.36</ele>
        <time>2016-08-21T15:06:13Z</time>
      </trkpt>
      <trkpt lat="49.31504" lon="-0.54554">
        <ele>45.8</ele>
        <time>2016-08-21T15:06:58Z</time>
      </trkpt>
      <trkpt lat="49.31499" lon="-0.54371">
        <ele>46.76</ele>
        <time>2016-08-21T15:07:18Z</time>
      </trkpt>
      <trkpt lat="49.3149" lon="-0.54184">
        <ele>48.2</ele>
        <time>2016-08-21T15:07:39Z</time>
      </trkpt>
      <trkpt lat="49.31444" lon="-0.54049">
        <ele>48.68</ele>
        <time>2016-08-21T15:07:56Z</time>
      </trkpt>
      <trkpt lat="49.31388" lon="-0.53897">
        <ele>48.68</ele>
        <time>2016-08-21T15:08:15Z</time>
      </trkpt>
      <trkpt lat="49.31338" lon="-0.53694">
        <ele>48.68</ele>
        <time>2016-08-21T15:08:38Z</time>
      </trkpt>
      <trkpt lat="49.31315" lon="-0.53579">
        <ele>49.16</ele>
        <time>2016-08-21T15:08:52Z</time>
      </trkpt>
      <trkpt lat="49.31318" lon="-0.53543">
        <ele>49.16</ele>
        <time>2016-08-21T15:08:56Z</time>
      </trkpt>
      <trkpt lat="49.3136" lon="-0.53339">
        <ele>48.68</ele>
        <time>2016-08-21T15:09:20Z</time>
      </trkpt>
      <trkpt lat="49.31377" lon="-0.53156">
        <ele>48.2</ele>
        <time>2016-08-21T15:09:40Z</time>
      </trkpt>
      <trkpt lat="49.31373" lon="-0.52951">
        <ele>47.72</ele>
        <time>2016-08-21T15:10:02Z</time>
      </trkpt>
      <trkpt lat="49.31332" lon="-0.52772">
        <ele>49.65</ele>
        <time>2016-08-21T15:10:23Z</time>
      </trkpt>
      <trkpt lat="49.31282" lon="-0.52612">
        <ele>50.13</ele>
        <time>2016-08-21T15:10:43Z</time>
      </trkpt>
      <trkpt lat="49.3126" lon="-0.52534">
        <ele>50.61</ele>
        <time>2016-08-21T15:10:53Z</time>
      </trkpt>
      <trkpt lat="49.31237" lon="-0.52311">
        <ele>49.16</ele>
        <time>2016-08-21T15:11:16Z</time>
      </trkpt>
      <trkpt lat="49.31204" lon="-0.52035">
        <ele>49.65</ele>
        <time>2016-08-21T15:11:45Z</time>
      </trkpt>
      <trkpt lat="49.31205" lon="-0.51824">
        <ele>48.68</ele>
        <time>2016-08-21T15:12:08Z</time>
      </trkpt>
      <trkpt lat="49.31208" lon="-0.51689">
        <ele>50.13</ele>
        <time>2016-08-21T15:12:24Z</time>
      </trkpt>
      <trkpt lat="49.31211" lon="-0.51514">
        <ele>48.68</ele>
        <time>2016-08-21T15:12:45Z</time>
      </trkpt>
      <trkpt lat="49.31217" lon="-0.51396">
        <ele>48.2</ele>
        <time>2016-08-21T15:12:59Z</time>
      </trkpt>
      <trkpt lat="49.31252" lon="-0.51238">
        <ele>46.28</ele>
        <time>2016-08-21T15:13:21Z</time>
      </trkpt>
      <trkpt lat="49.31264" lon="-0.5121">
        <ele>45.8</ele>
        <time>2016-08-21T15:13:25Z</time>
      </trkpt>
      <trkpt lat="49.31273" lon="-0.51186">
        <ele>45.8</ele>
        <time>2016-08-21T15:13:28Z</time>
      </trkpt>
      <trkpt lat="49.31326" lon="-0.51106">
        <ele>44.36</ele>
        <time>2016-08-21T15:13:45Z</time>
      </trkpt>
      <trkpt lat="49.31364" lon="-0.51048">
        <ele>45.32</ele>
        <time>2016-08-21T15:14:00Z</time>
      </trkpt>
      <trkpt lat="49.31391" lon="-0.51015">
        <ele>45.32</ele>
        <time>2016-08-21T15:14:07Z</time>
      </trkpt>
      <trkpt lat="49.31476" lon="-0.50907">
        <ele>44.84</ele>
        <time>2016-08-21T15:14:37Z</time>
      </trkpt>
      <trkpt lat="49.3154" lon="-0.50863">
        <ele>43.88</ele>
        <time>2016-08-21T15:14:58Z</time>
      </trkpt>
      <trkpt lat="49.31595" lon="-0.50864">
        <ele>41.95</ele>
        <time>2016-08-21T15:15:07Z</time>
      </trkpt>
      <trkpt lat="49.31608" lon="-0.5086">
        <ele>41.47</ele>
        <time>2016-08-21T15:15:09Z</time>
      </trkpt>
      <trkpt lat="49.31629" lon="-0.5084">
        <ele>41.47</ele>
        <time>2016-08-21T15:15:13Z</time>
      </trkpt>
      <trkpt lat="49.31701" lon="-0.50733">
        <ele>40.99</ele>
        <time>2016-08-21T15:15:30Z</time>
      </trkpt>
      <trkpt lat="49.31757" lon="-0.50563">
        <ele>41.95</ele>
        <time>2016-08-21T15:15:51Z</time>
      </trkpt>
      <trkpt lat="49.31813" lon="-0.50412">
        <ele>42.92</ele>
        <time>2016-08-21T15:16:11Z</time>
      </trkpt>
      <trkpt lat="49.31839" lon="-0.5042">
        <ele>41.95</ele>
        <time>2016-08-21T15:16:19Z</time>
      </trkpt>
      <trkpt lat="49.31899" lon="-0.50535">
        <ele>40.03</ele>
        <time>2016-08-21T15:16:38Z</time>
      </trkpt>
      <trkpt lat="49.31982" lon="-0.50693">
        <ele>38.59</ele>
        <time>2016-08-21T15:17:00Z</time>
      </trkpt>
      <trkpt lat="49.32034" lon="-0.5079">
        <ele>39.55</ele>
        <time>2016-08-21T15:17:17Z</time>
      </trkpt>
      <trkpt lat="49.32061" lon="-0.50786">
        <ele>39.07</ele>
        <time>2016-08-21T15:17:25Z</time>
      </trkpt>
      <trkpt lat="49.32135" lon="-0.50705">
        <ele>39.07</ele>
        <time>2016-08-21T15:17:45Z</time>
      </trkpt>
      <trkpt lat="49.3215" lon="-0.50689">
        <ele>39.07</ele>
        <time>2016-08-21T15:17:49Z</time>
      </trkpt>
      <trkpt lat="49.32234" lon="-0.50618">
        <ele>39.07</ele>
        <time>2016-08-21T15:18:11Z</time>
      </trkpt>
      <trkpt lat="49.32241" lon="-0.5061">
        <ele>39.07</ele>
        <time>2016-08-21T15:18:13Z</time>
      </trkpt>
      <trkpt lat="49.3231" lon="-0.5055">
        <ele>39.07</ele>
        <time>2016-08-21T15:18:33Z</time>
      </trkpt>
      <trkpt lat="49.32376" lon="-0.50493">
        <ele>39.07</ele>
        <time>2016-08-21T15:18:49Z</time>
      </trkpt>
      <trkpt lat="49.32467" lon="-0.50412">
        <ele>38.11</ele>
        <time>2016-08-21T15:19:10Z</time>
      </trkpt>
      <trkpt lat="49.32553" lon="-0.5034">
        <ele>38.11</ele>
        <time>2016-08-21T15:19:30Z</time>
      </trkpt>
      <trkpt lat="49.32634" lon="-0.50268">
        <ele>38.11</ele>
        <time>2016-08-21T15:19:51Z</time>
      </trkpt>
      <trkpt lat="49.32701" lon="-0.5021">
        <ele>36.67</ele>
        <time>2016-08-21T15:20:14Z</time>
      </trkpt>
      <trkpt lat="49.32774" lon="-0.50147">
        <ele>37.15</ele>
        <time>2016-08-21T15:20:31Z</time>
      </trkpt>
      <trkpt lat="49.32863" lon="-0.5007">
        <ele>35.71</ele>
        <time>2016-08-21T15:20:51Z</time>
      </trkpt>
      <trkpt lat="49.32973" lon="-0.49967">
        <ele>33.3</ele>
        <time>2016-08-21T15:21:15Z</time>
      </trkpt>
      <trkpt lat="49.33085" lon="-0.49813">
        <ele>31.86</ele>
        <time>2016-08-21T15:21:44Z</time>
      </trkpt>
      <trkpt lat="49.33201" lon="-0.49646">
        <ele>28.98</ele>
        <time>2016-08-21T15:22:16Z</time>
      </trkpt>
      <trkpt lat="49.33263" lon="-0.49534">
        <ele>26.57</ele>
        <time>2016-08-21T15:22:35Z</time>
      </trkpt>
      <trkpt lat="49.3334" lon="-0.49434">
        <ele>23.69</ele>
        <time>2016-08-21T15:22:53Z</time>
      </trkpt>
      <trkpt lat="49.33395" lon="-0.49396">
        <ele>20.81</ele>
        <time>2016-08-21T15:23:07Z</time>
      </trkpt>
      <trkpt lat="49.33424" lon="-0.49364">
        <ele>17.92</ele>
        <time>2016-08-21T15:23:19Z</time>
      </trkpt>
      <trkpt lat="49.33494" lon="-0.4929">
        <ele>10.71</ele>
        <time>2016-08-21T15:23:47Z</time>
      </trkpt>
      <trkpt lat="49.33503" lon="-0.49273">
        <ele>10.23</ele>
        <time>2016-08-21T15:25:06Z</time>
      </trkpt>
      <trkpt lat="49.33502" lon="-0.49259">
        <ele>8.31</ele>
        <time>2016-08-21T15:25:11Z</time>
      </trkpt>
      <trkpt lat="49.33501" lon="-0.49219">
        <ele>7.35</ele>
        <time>2016-08-21T15:25:16Z</time>
      </trkpt>
      <trkpt lat="49.33463" lon="-0.49141">
        <ele>6.39</ele>
        <time>2016-08-21T15:25:27Z</time>
      </trkpt>
      <trkpt lat="49.33405" lon="-0.49119">
        <ele>8.31</ele>
        <time>2016-08-21T15:25:37Z</time>
      </trkpt>
      <trkpt lat="49.33376" lon="-0.49114">
        <ele>8.79</ele>
        <time>2016-08-21T15:25:42Z</time>
      </trkpt>
      <trkpt lat="49.33109" lon="-0.49109">
        <ele>17.44</ele>
        <time>2016-08-21T15:26:27Z</time>
      </trkpt>
      <trkpt lat="49.33103" lon="-0.49089">
        <ele>18.88</ele>
        <time>2016-08-21T15:26:31Z</time>
      </trkpt>
      <trkpt lat="49.33111" lon="-0.4902">
        <ele>23.21</ele>
        <time>2016-08-21T15:26:41Z</time>
      </trkpt>
      <trkpt lat="49.33114" lon="-0.48991">
        <ele>23.69</ele>
        <time>2016-08-21T15:26:45Z</time>
      </trkpt>
      <trkpt lat="49.33114" lon="-0.48889">
        <ele>24.65</ele>
        <time>2016-08-21T15:26:58Z</time>
      </trkpt>
      <trkpt lat="49.33082" lon="-0.48718">
        <ele>25.61</ele>
        <time>2016-08-21T15:27:18Z</time>
      </trkpt>
      <trkpt lat="49.33058" lon="-0.48552">
        <ele>25.13</ele>
        <time>2016-08-21T15:27:38Z</time>
      </trkpt>
      <trkpt lat="49.33059" lon="-0.48511">
        <ele>24.65</ele>
        <time>2016-08-21T15:27:43Z</time>
      </trkpt>
      <trkpt lat="49.33071" lon="-0.48457">
        <ele>23.21</ele>
        <time>2016-08-21T15:27:50Z</time>
      </trkpt>
      <trkpt lat="49.33106" lon="-0.48399">
        <ele>22.73</ele>
        <time>2016-08-21T15:28:16Z</time>
      </trkpt>
      <trkpt lat="49.33131" lon="-0.48367">
        <ele>20.32</ele>
        <time>2016-08-21T15:29:00Z</time>
      </trkpt>
      <trkpt lat="49.33191" lon="-0.4828">
        <ele>17.44</ele>
        <time>2016-08-21T15:29:12Z</time>
      </trkpt>
      <trkpt lat="49.33223" lon="-0.48188">
        <ele>14.08</ele>
        <time>2016-08-21T15:29:19Z</time>
      </trkpt>
      <trkpt lat="49.33226" lon="-0.48049">
        <ele>11.19</ele>
        <time>2016-08-21T15:29:28Z</time>
      </trkpt>
      <trkpt lat="49.33157" lon="-0.47854">
        <ele>8.79</ele>
        <time>2016-08-21T15:29:44Z</time>
      </trkpt>
      <trkpt lat="49.33063" lon="-0.47636">
        <ele>5.42</ele>
        <time>2016-08-21T15:30:04Z</time>
      </trkpt>
      <trkpt lat="49.32996" lon="-0.4748">
        <ele>2.06</ele>
        <time>2016-08-21T15:30:22Z</time>
      </trkpt>
      <trkpt lat="49.32993" lon="-0.47414">
        <ele>0.62</ele>
        <time>2016-08-21T15:30:35Z</time>
      </trkpt>
      <trkpt lat="49.3299" lon="-0.47384">
        <ele>0.62</ele>
        <time>2016-08-21T15:30:39Z</time>
      </trkpt>
      <trkpt lat="49.32985" lon="-0.47371">
        <ele>1.1</ele>
        <time>2016-08-21T15:30:41Z</time>
      </trkpt>
      <trkpt lat="49.32981" lon="-0.47357">
        <ele>1.1</ele>
        <time>2016-08-21T15:30:43Z</time>
      </trkpt>
      <trkpt lat="49.33123" lon="-0.47271">
        <ele>1.58</ele>
        <time>2016-08-21T15:31:08Z</time>
      </trkpt>
      <trkpt lat="49.3329" lon="-0.4718">
        <ele>0.14</ele>
        <time>2016-08-21T15:31:35Z</time>
      </trkpt>
      <trkpt lat="49.33385" lon="-0.47123">
        <ele>0.62</ele>
        <time>2016-08-21T15:31:52Z</time>
      </trkpt>
      <trkpt lat="49.33472" lon="-0.47068">
        <ele>-0.34</ele>
        <time>2016-08-21T15:32:12Z</time>
      </trkpt>
      <trkpt lat="49.33485" lon="-0.47056">
        <ele>-0.34</ele>
        <time>2016-08-21T15:32:54Z</time>
      </trkpt>
      <trkpt lat="49.33476" lon="-0.46889">
        <ele>1.1</ele>
        <time>2016-08-21T15:33:13Z</time>
      </trkpt>
      <trkpt lat="49.33474" lon="-0.46821">
        <ele>0.62</ele>
        <time>2016-08-21T15:33:20Z</time>
      </trkpt>
      <trkpt lat="49.33472" lon="-0.46776">
        <ele>1.1</ele>
        <time>2016-08-21T15:33:25Z</time>
      </trkpt>
      <trkpt lat="49.33467" lon="-0.46514">
        <ele>0.14</ele>
        <time>2016-08-21T15:33:52Z</time>
      </trkpt>
      <trkpt lat="49.33467" lon="-0.46468">
        <ele>0.62</ele>
        <time>2016-08-21T15:33:57Z</time>
      </trkpt>
      <trkpt lat="49.33452" lon="-0.46449">
        <ele>1.1</ele>
        <time>2016-08-21T15:34:01Z</time>
      </trkpt>
      <trkpt lat="49.33324" lon="-0.4646">
        <ele>0.62</ele>
        <time>2016-08-21T15:34:23Z</time>
      </trkpt>
      <trkpt lat="49.3328" lon="-0.46471">
        <ele>-0.34</ele>
        <time>2016-08-21T15:34:32Z</time>
      </trkpt>
      <trkpt lat="49.3325" lon="-0.46479">
        <ele>0.62</ele>
        <time>2016-08-21T15:34:42Z</time>
      </trkpt>
      <trkpt lat="49.33236" lon="-0.4646">
        <ele>0.62</ele>
        <time>2016-08-21T15:34:51Z</time>
      </trkpt>
      <trkpt lat="49.33203" lon="-0.46496">
        <ele>1.58</ele>
        <time>2016-08-21T15:35:04Z</time>
      </trkpt>
      <trkpt lat="49.33174" lon="-0.46491">
        <ele>0.62</ele>
        <time>2016-08-21T15:35:11Z</time>
      </trkpt>
      <trkpt lat="49.33145" lon="-0.46433">
        <ele>1.58</ele>
        <time>2016-08-21T15:35:23Z</time>
      </trkpt>
      <trkpt lat="49.33151" lon="-0.46387">
        <ele>1.1</ele>
        <time>2016-08-21T15:35:31Z</time>
      </trkpt>
      <trkpt lat="49.33181" lon="-0.46345">
        <ele>0.14</ele>
        <time>2016-08-21T15:35:40Z</time>
      </trkpt>
      <trkpt lat="49.3317" lon="-0.46306">
        <ele>-0.82</ele>
        <time>2016-08-21T15:35:47Z</time>
      </trkpt>
      <trkpt lat="49.33095" lon="-0.46162">
        <ele>0.62</ele>
        <time>2016-08-21T15:36:09Z</time>
      </trkpt>
      <trkpt lat="49.33043" lon="-0.46054">
        <ele>2.54</ele>
        <time>2016-08-21T15:36:23Z</time>
      </trkpt>
      <trkpt lat="49.33014" lon="-0.45863">
        <ele>5.91</ele>
        <time>2016-08-21T15:36:46Z</time>
      </trkpt>
      <trkpt lat="49.32968" lon="-0.45757">
        <ele>6.87</ele>
        <time>2016-08-21T15:37:03Z</time>
      </trkpt>
      <trkpt lat="49.32959" lon="-0.45759">
        <ele>6.87</ele>
        <time>2016-08-21T15:37:38Z</time>
      </trkpt>
      <trkpt lat="49.32956" lon="-0.45714">
        <ele>5.42</ele>
        <time>2016-08-21T15:37:50Z</time>
      </trkpt>
      <trkpt lat="49.32959" lon="-0.4568">
        <ele>4.46</ele>
        <time>2016-08-21T15:37:57Z</time>
      </trkpt>
      <trkpt lat="49.32965" lon="-0.45672">
        <ele>3.5</ele>
        <time>2016-08-21T15:38:01Z</time>
      </trkpt>
      <trkpt lat="49.32979" lon="-0.45665">
        <ele>3.5</ele>
        <time>2016-08-21T15:38:05Z</time>
      </trkpt>
      <trkpt lat="49.33012" lon="-0.45521">
        <ele>5.4</ele>
      </trkpt>
      <trkpt lat="49.33003" lon="-0.4548">
        <ele>5</ele>
      </trkpt>
      <trkpt lat="49.32997" lon="-0.45412">
        <ele>6.2</ele>
      </trkpt>
      <trkpt lat="49.32994" lon="-0.45198">
        <ele>8.4</ele>
      </trkpt>
      <trkpt lat="49.32998" lon="-0.45122">
        <ele>8.1</ele>
      </trkpt>
      <trkpt lat="49.33006" lon="-0.45085">
        <ele>8.7</ele>
      </trkpt>
      <trkpt lat="49.33032" lon="-0.44991">
        <ele>8.2</ele>
      </trkpt>
      <trkpt lat="49.33038" lon="-0.44943">
        <ele>7.7</ele>
      </trkpt>
      <trkpt lat="49.33023" lon="-0.44747">
        <ele>9.2</ele>
      </trkpt>
      <trkpt lat="49.33014" lon="-0.44589">
        <ele>8.5</ele>
      </trkpt>
      <trkpt lat="49.32988" lon="-0.44235">
        <ele>10</ele>
      </trkpt>
      <trkpt lat="49.32979" lon="-0.4418">
        <ele>9.7</ele>
      </trkpt>
      <trkpt lat="49.32942" lon="-0.43477">
        <ele>10</ele>
      </trkpt>
      <trkpt lat="49.32948" lon="-0.43409">
        <ele>9.9</ele>
      </trkpt>
      <trkpt lat="49.32931" lon="-0.43315">
        <ele>9.2</ele>
      </trkpt>
      <trkpt lat="49.32913" lon="-0.43071">
        <ele>5.9</ele>
      </trkpt>
      <trkpt lat="49.32904" lon="-0.42992">
        <ele>5</ele>
      </trkpt>
      <trkpt lat="49.32909" lon="-0.42785">
        <ele>4.7</ele>
      </trkpt>
      <trkpt lat="49.32894" lon="-0.42664">
        <ele>5</ele>
      </trkpt>
      <trkpt lat="49.32879" lon="-0.42626">
        <ele>5</ele>
      </trkpt>
      <trkpt lat="49.32892" lon="-0.42496">
        <ele>6</ele>
      </trkpt>
      <trkpt lat="49.33115" lon="-0.42422">
        <ele>-14.28</ele>
        <time>2016-08-21T15:46:35Z</time>
      </trkpt>
      <trkpt lat="49.33148" lon="-0.42219">
        <ele>-14.76</ele>
        <time>2016-08-21T15:47:18Z</time>
      </trkpt>
      <trkpt lat="49.3317" lon="-0.42145">
        <ele>-13.8</ele>
        <time>2016-08-21T15:47:34Z</time>
      </trkpt>
      <trkpt lat="49.33165" lon="-0.4202">
        <ele>-10.44</ele>
        <time>2016-08-21T15:47:55Z</time>
      </trkpt>
      <trkpt lat="49.33164" lon="-0.41962">
        <ele>-6.59</ele>
        <time>2016-08-21T15:48:03Z</time>
      </trkpt>
      <trkpt lat="49.33164" lon="-0.41956">
        <ele>-6.59</ele>
        <time>2016-08-21T15:48:04Z</time>
      </trkpt>
      <trkpt lat="49.33162" lon="-0.41866">
        <ele>-3.71</ele>
        <time>2016-08-21T15:48:17Z</time>
      </trkpt>
      <trkpt lat="49.33161" lon="-0.41747">
        <ele>-0.34</ele>
        <time>2016-08-21T15:48:37Z</time>
      </trkpt>
      <trkpt lat="49.33157" lon="-0.41398">
        <ele>3.98</ele>
        <time>2016-08-21T15:49:27Z</time>
      </trkpt>
      <trkpt lat="49.33156" lon="-0.4125">
        <ele>3.5</ele>
        <time>2016-08-21T15:49:45Z</time>
      </trkpt>
      <trkpt lat="49.33187" lon="-0.41073">
        <ele>3.5</ele>
        <time>2016-08-21T15:50:09Z</time>
      </trkpt>
      <trkpt lat="49.33223" lon="-0.40948">
        <ele>3.5</ele>
        <time>2016-08-21T15:50:27Z</time>
      </trkpt>
      <trkpt lat="49.33225" lon="-0.40929">
        <ele>3.5</ele>
        <time>2016-08-21T15:50:29Z</time>
      </trkpt>
      <trkpt lat="49.33227" lon="-0.40859">
        <ele>3.02</ele>
        <time>2016-08-21T15:50:37Z</time>
      </trkpt>
      <trkpt lat="49.33217" lon="-0.40653">
        <ele>3.02</ele>
        <time>2016-08-21T15:51:02Z</time>
      </trkpt>
      <trkpt lat="49.33196" lon="-0.40556">
        <ele>3.02</ele>
        <time>2016-08-21T15:51:14Z</time>
      </trkpt>
      <trkpt lat="49.33179" lon="-0.40523">
        <ele>3.5</ele>
        <time>2016-08-21T15:51:19Z</time>
      </trkpt>
      <trkpt lat="49.3305" lon="-0.40408">
        <ele>3.5</ele>
        <time>2016-08-21T15:51:43Z</time>
      </trkpt>
      <trkpt lat="49.32831" lon="-0.40012">
        <ele>4.46</ele>
        <time>2016-08-21T15:52:37Z</time>
      </trkpt>
      <trkpt lat="49.32797" lon="-0.39775">
        <ele>3.98</ele>
        <time>2016-08-21T15:53:01Z</time>
      </trkpt>
      <trkpt lat="49.32785" lon="-0.3968">
        <ele>4.46</ele>
        <time>2016-08-21T15:53:11Z</time>
      </trkpt>
      <trkpt lat="49.32783" lon="-0.39646">
        <ele>4.46</ele>
        <time>2016-08-21T15:53:15Z</time>
      </trkpt>
      <trkpt lat="49.32776" lon="-0.39623">
        <ele>4.46</ele>
        <time>2016-08-21T15:53:19Z</time>
      </trkpt>
      <trkpt lat="49.32778" lon="-0.39511">
        <ele>3.5</ele>
        <time>2016-08-21T15:53:35Z</time>
      </trkpt>
      <trkpt lat="49.32776" lon="-0.39212">
        <ele>3.98</ele>
        <time>2016-08-21T15:54:13Z</time>
      </trkpt>
      <trkpt lat="49.32745" lon="-0.39004">
        <ele>4.46</ele>
        <time>2016-08-21T15:54:39Z</time>
      </trkpt>
      <trkpt lat="49.327" lon="-0.38808">
        <ele>3.5</ele>
        <time>2016-08-21T15:55:04Z</time>
      </trkpt>
      <trkpt lat="49.32695" lon="-0.38714">
        <ele>3.02</ele>
        <time>2016-08-21T15:55:18Z</time>
      </trkpt>
      <trkpt lat="49.32695" lon="-0.38695">
        <ele>2.54</ele>
        <time>2016-08-21T15:55:24Z</time>
      </trkpt>
      <trkpt lat="49.32707" lon="-0.38519">
        <ele>2.06</ele>
        <time>2016-08-21T15:55:46Z</time>
      </trkpt>
      <trkpt lat="49.32687" lon="-0.38342">
        <ele>2.54</ele>
        <time>2016-08-21T15:56:06Z</time>
      </trkpt>
      <trkpt lat="49.3268" lon="-0.38234">
        <ele>3.98</ele>
        <time>2016-08-21T15:56:23Z</time>
      </trkpt>
      <trkpt lat="49.32695" lon="-0.38074">
        <ele>4.46</ele>
        <time>2016-08-21T15:56:55Z</time>
      </trkpt>
      <trkpt lat="49.32693" lon="-0.38067">
        <ele>4.46</ele>
        <time>2016-08-21T15:57:11Z</time>
      </trkpt>
      <trkpt lat="49.32687" lon="-0.38068">
        <ele>3.98</ele>
        <time>2016-08-21T15:57:15Z</time>
      </trkpt>
      <trkpt lat="49.32665" lon="-0.38076">
        <ele>3.98</ele>
        <time>2016-08-21T15:57:38Z</time>
      </trkpt>
    </trkseg>
  </trk>
</gpx>